map of TCQ home
TCQ - Airport
Location
City:  Tacna, Tacna, Perú
Name:Coronel FAP Carlos Ciriani Santa Rosa International Airport
ICAO:SPTN
IATA:TCQ

Details
Type:Airport (Aerodrome, Airfield)
Use:Public/Civil, Military, International (customs port of entry)
Latitude:18°03'12"S (-18.053285)
Longitude:70°16'33"W (-70.275821)
Elevation:1538 ft (469 m)
Variation:5.83°W (WMM2015 magnetic declination)
-0.19° annual change
Runways:1
Longest:8202 × 148 ft (2500 × 45 m), paved

Time
Time Zone:UTC-5
Local Time:

Weather
METAR:SPTN 130200Z 23005KT 210V260 9999 OVC023 19/14 Q1017 RMK PP000
TAF:SPTN 122300Z 1300/1324 21005KT 9999 BKN030 TX25/1319Z TN15/1310Z
FM131500 22010KT CAVOK

Related Locations
Nearby:
Farthest:SYX: 12428 mi / 20001 km
Sanya [Fenghuang Intl (Phoenix Intl)], 46, CN

Find:

   beyond  
but within

Other Information
Maps:
NOTAMs:
Links:
Sources:

  
  • flag of Perú
  • flag of Tacna
  

Sectional Chart

Flight Planning
at skyvector.com

Satellite Image

Google Maps Satellite view

 

Copyright © 2004-2018 Karl L. Swartz. All rights reserved.
The Great Circle Mapper name and logo are trademarks of the Great Circle Mapper.
All other trademarks mentioned herein belong to their respective owners.
Please see credits for attibutions and further copyright information.

  Follow gcmap on Facebook Follow gcmap on Twitter Follow gcmap on Google+ GCmap on LinkedIn

hCard Microformat

Geo Microformat